Time;durP1;ratioP1;P1;durP2;ratioP2;P2;SDS_P1;SDS_P2;PMS_P1;PMS_P2;Temp;Humidity;BMP_temperature;BMP_pressure;BME280_temperature;BME280_humidity;BME280_pressure;Samples;Min_cycle;Max_cycle;Signal;HPM_P1;HPM_P2
2022/07/17 00:02:04;;;;;;;1.00;1.00;;;;;;;;;;5072082;28;20211;-81
2022/07/17 00:04:32;;;;;;;0.93;0.93;;;;;;;;;;5073105;28;20241;-80
2022/07/17 00:07:01;;;;;;;0.33;0.33;;;;;;;;;;5073300;28;20221;-80
2022/07/17 00:09:31;;;;;;;0.40;0.40;;;;;;;;;;5073129;28;20212;-81
2022/07/17 00:12:00;;;;;;;1.00;1.00;;;;;;;;;;5069015;28;20207;-81
2022/07/17 00:14:28;;;;;;;0.60;0.60;;;;;;;;;;5084337;28;20206;-81
2022/07/17 00:16:57;;;;;;;0.40;0.40;;;;;;;;;;5071894;28;20202;-81
2022/07/17 00:19:26;;;;;;;0.60;0.60;;;;;;;;;;5073000;28;20203;-80
2022/07/17 00:21:55;;;;;;;0.40;0.40;;;;;;;;;;5072225;28;20209;-81
2022/07/17 00:24:23;;;;;;;0.40;0.40;;;;;;;;;;5071834;28;20190;-80
2022/07/17 00:26:53;;;;;;;0.63;0.50;;;;;;;;;;5071761;28;20214;-81
2022/07/17 00:29:21;;;;;;;1.07;0.80;;;;;;;;;;5072289;28;20211;-80
2022/07/17 00:31:50;;;;;;;0.40;0.40;;;;;;;;;;5071772;28;20197;-80
2022/07/17 00:34:19;;;;;;;2.03;1.93;;;;;;;;;;5071891;28;20254;-80
2022/07/17 00:36:48;;;;;;;0.50;0.50;;;;;;;;;;5075058;28;20204;-81
2022/07/17 00:39:17;;;;;;;0.40;0.40;;;;;;;;;;5076983;28;20204;-81
2022/07/17 00:41:46;;;;;;;0.57;0.57;;;;;;;;;;5076009;28;20228;-81
2022/07/17 00:44:16;;;;;;;0.40;0.40;;;;;;;;;;5075517;28;20206;-81
2022/07/17 00:46:44;;;;;;;0.33;0.33;;;;;;;;;;5075739;28;20237;-81
2022/07/17 00:49:13;;;;;;;1.73;1.53;;;;;;;;;;5075374;28;20202;-81
2022/07/17 00:51:41;;;;;;;0.40;0.40;;;;;;;;;;5075990;28;20232;-81
2022/07/17 00:54:10;;;;;;;0.60;0.60;;;;;;;;;;5076687;28;20220;-81
2022/07/17 00:56:39;;;;;;;1.03;1.03;;;;;;;;;;5076815;28;20206;-81
2022/07/17 00:59:07;;;;;;;0.63;0.63;;;;;;;;;;5074915;28;20485;-80
2022/07/17 01:01:37;;;;;;;0.93;0.93;;;;;;;;;;5074913;28;20196;-80
2022/07/17 01:04:06;;;;;;;0.73;0.73;;;;;;;;;;5071693;28;20245;-80
2022/07/17 01:06:34;;;;;;;0.70;0.70;;;;;;;;;;5068342;28;20205;-80
2022/07/17 01:09:03;;;;;;;0.60;0.60;;;;;;;;;;5075212;28;20210;-80
2022/07/17 01:11:32;;;;;;;0.60;0.60;;;;;;;;;;5092152;28;20201;-80
2022/07/17 01:14:01;;;;;;;0.97;0.97;;;;;;;;;;5076147;28;20202;-80
2022/07/17 01:16:29;;;;;;;0.50;0.50;;;;;;;;;;5075260;28;20272;-80
2022/07/17 01:18:59;;;;;;;0.40;0.40;;;;;;;;;;5075975;28;20201;-80
2022/07/17 01:21:39;;;;;;;0.40;0.40;;;;;;;;;;5076235;28;20207;-79
2022/07/17 01:24:08;;;;;;;0.67;0.67;;;;;;;;;;5075373;28;20209;-80
2022/07/17 01:26:37;;;;;;;0.40;0.40;;;;;;;;;;5075353;28;20201;-81
2022/07/17 01:29:05;;;;;;;0.30;0.30;;;;;;;;;;5067264;28;20215;-81
2022/07/17 01:31:33;;;;;;;0.87;0.53;;;;;;;;;;5070018;28;20203;-80
2022/07/17 01:34:02;;;;;;;0.50;0.50;;;;;;;;;;5075487;28;20208;-80
2022/07/17 01:36:30;;;;;;;0.40;0.40;;;;;;;;;;5076137;28;20240;-80
2022/07/17 01:39:01;;;;;;;0.53;0.53;;;;;;;;;;5074408;28;20228;-81
2022/07/17 01:41:29;;;;;;;0.40;0.40;;;;;;;;;;5074579;28;20205;-80
2022/07/17 01:43:58;;;;;;;0.60;0.60;;;;;;;;;;5074564;28;20203;-80
2022/07/17 01:46:27;;;;;;;0.60;0.60;;;;;;;;;;5074125;28;20255;-80
2022/07/17 01:48:55;;;;;;;0.67;0.67;;;;;;;;;;5073665;28;20206;-80
2022/07/17 01:51:24;;;;;;;2.53;2.43;;;;;;;;;;5075352;28;20198;-80
2022/07/17 01:53:58;;;;;;;0.40;0.40;;;;;;;;;;5075377;28;20227;-81
2022/07/17 01:56:28;;;;;;;0.40;0.40;;;;;;;;;;5075871;28;20258;-80
2022/07/17 01:58:56;;;;;;;0.40;0.40;;;;;;;;;;5075560;28;20218;-81
2022/07/17 02:01:25;;;;;;;0.40;0.40;;;;;;;;;;5074125;28;20254;-80
2022/07/17 02:03:54;;;;;;;0.50;0.50;;;;;;;;;;5074256;28;20235;-81
2022/07/17 02:06:22;;;;;;;0.50;0.50;;;;;;;;;;5074340;28;20205;-81
2022/07/17 02:08:51;;;;;;;0.40;0.40;;;;;;;;;;5074115;28;20224;-81
2022/07/17 02:11:20;;;;;;;0.40;0.40;;;;;;;;;;5073989;28;20213;-80
2022/07/17 02:13:49;;;;;;;1.37;1.27;;;;;;;;;;5074054;28;20209;-80
2022/07/17 02:16:18;;;;;;;0.57;0.57;;;;;;;;;;5075347;28;20213;-80
2022/07/17 02:18:46;;;;;;;0.93;0.93;;;;;;;;;;5074306;28;20197;-80
2022/07/17 02:21:15;;;;;;;0.50;0.50;;;;;;;;;;5074918;28;20213;-81
2022/07/17 02:23:43;;;;;;;0.90;0.90;;;;;;;;;;5074106;28;20206;-80
2022/07/17 02:26:12;;;;;;;0.50;0.50;;;;;;;;;;5073881;28;20198;-79
2022/07/17 02:28:40;;;;;;;2.50;2.40;;;;;;;;;;5074811;28;20213;-80
2022/07/17 02:31:10;;;;;;;0.47;0.47;;;;;;;;;;5073809;28;20190;-80
2022/07/17 02:33:39;;;;;;;0.50;0.50;;;;;;;;;;5090258;28;20206;-81
2022/07/17 02:36:08;;;;;;;2.10;1.33;;;;;;;;;;5073766;28;20206;-80
2022/07/17 02:38:36;;;;;;;0.50;0.50;;;;;;;;;;5073320;28;20194;-80
2022/07/17 02:41:05;;;;;;;0.53;0.53;;;;;;;;;;5074491;28;20206;-80
2022/07/17 02:43:33;;;;;;;0.40;0.40;;;;;;;;;;5073369;28;20285;-80
2022/07/17 02:46:02;;;;;;;1.13;1.13;;;;;;;;;;5073422;28;20287;-80
2022/07/17 02:48:31;;;;;;;0.80;0.80;;;;;;;;;;5074402;28;20211;-80
2022/07/17 02:51:00;;;;;;;1.00;1.00;;;;;;;;;;5073593;28;20213;-80
2022/07/17 02:53:28;;;;;;;0.70;0.70;;;;;;;;;;5073443;28;20198;-79
2022/07/17 02:55:57;;;;;;;0.50;0.50;;;;;;;;;;5065085;28;20210;-79
2022/07/17 02:58:25;;;;;;;0.40;0.40;;;;;;;;;;5067778;28;20198;-80
2022/07/17 03:00:54;;;;;;;0.47;0.47;;;;;;;;;;5074396;28;20219;-80
2022/07/17 03:03:23;;;;;;;3.10;0.73;;;;;;;;;;5074302;28;20216;-80
2022/07/17 03:05:53;;;;;;;0.70;0.70;;;;;;;;;;5073989;28;20204;-80
2022/07/17 03:08:22;;;;;;;0.40;0.40;;;;;;;;;;5072620;28;20221;-80
2022/07/17 03:10:50;;;;;;;0.50;0.50;;;;;;;;;;5089775;28;20209;-80
2022/07/17 03:13:18;;;;;;;0.50;0.50;;;;;;;;;;5073362;28;20208;-80
2022/07/17 03:15:47;;;;;;;0.40;0.40;;;;;;;;;;5072849;28;20252;-80
2022/07/17 03:18:15;;;;;;;0.40;0.40;;;;;;;;;;5073283;28;20209;-80
2022/07/17 03:20:44;;;;;;;0.40;0.40;;;;;;;;;;5089685;28;20205;-80
2022/07/17 03:23:14;;;;;;;0.40;0.40;;;;;;;;;;5072909;28;20202;-80
2022/07/17 03:25:42;;;;;;;0.40;0.40;;;;;;;;;;5072922;28;20241;-80
2022/07/17 03:28:10;;;;;;;0.40;0.40;;;;;;;;;;5089326;28;20206;-80
2022/07/17 03:30:39;;;;;;;0.80;0.80;;;;;;;;;;5072328;28;20236;-80
2022/07/17 03:33:07;;;;;;;0.47;0.47;;;;;;;;;;5070213;28;20201;-80
2022/07/17 03:35:36;;;;;;;0.70;0.70;;;;;;;;;;5062519;28;20228;-80
2022/07/17 03:38:04;;;;;;;0.40;0.40;;;;;;;;;;5072568;28;20201;-79
2022/07/17 03:40:34;;;;;;;0.40;0.40;;;;;;;;;;5073421;28;20270;-80
2022/07/17 03:43:03;;;;;;;0.40;0.40;;;;;;;;;;5072349;28;20197;-80
2022/07/17 03:45:31;;;;;;;1.50;1.50;;;;;;;;;;5075328;28;20210;-79
2022/07/17 03:48:00;;;;;;;0.43;0.43;;;;;;;;;;5093798;28;20262;-80
2022/07/17 03:50:28;;;;;;;0.97;0.97;;;;;;;;;;5093676;28;20217;-80
2022/07/17 03:52:56;;;;;;;0.50;0.50;;;;;;;;;;5075963;28;20193;-79
2022/07/17 03:55:25;;;;;;;1.47;1.37;;;;;;;;;;5075435;28;20204;-81
2022/07/17 03:57:54;;;;;;;0.40;0.40;;;;;;;;;;5093316;28;20215;-80
2022/07/17 04:00:23;;;;;;;0.40;0.40;;;;;;;;;;5075376;28;20216;-80
2022/07/17 04:02:51;;;;;;;0.50;0.50;;;;;;;;;;5093590;28;20201;-80
2022/07/17 04:05:19;;;;;;;0.60;0.60;;;;;;;;;;5076103;28;20241;-80
2022/07/17 04:07:48;;;;;;;1.00;1.00;;;;;;;;;;5093242;28;20197;-80
2022/07/17 04:10:16;;;;;;;0.60;0.60;;;;;;;;;;5074698;28;20266;-79
2022/07/17 04:12:45;;;;;;;1.47;1.47;;;;;;;;;;5075343;28;20202;-80
2022/07/17 04:15:48;;;;;;;1.57;1.47;;;;;;;;;;5093179;28;20212;-80
2022/07/17 04:18:03;;;;;;;0.93;0.93;;;;;;;;;;5075260;28;20197;-80
2022/07/17 04:20:31;;;;;;;0.40;0.40;;;;;;;;;;5075399;28;20257;-80
2022/07/17 04:22:59;;;;;;;0.40;0.40;;;;;;;;;;5089473;28;20269;-80
2022/07/17 04:25:28;;;;;;;0.50;0.50;;;;;;;;;;5075499;28;20200;-80
2022/07/17 04:27:56;;;;;;;0.50;0.50;;;;;;;;;;5075368;28;20246;-80
2022/07/17 04:30:26;;;;;;;1.27;1.17;;;;;;;;;;5075115;28;20254;-79
2022/07/17 04:32:54;;;;;;;0.50;0.50;;;;;;;;;;5093123;28;20201;-80
2022/07/17 04:35:23;;;;;;;0.70;0.70;;;;;;;;;;5092770;28;20223;-80
2022/07/17 04:37:51;;;;;;;0.40;0.40;;;;;;;;;;5075462;28;20193;-80
2022/07/17 04:40:20;;;;;;;0.50;0.50;;;;;;;;;;5079113;28;20211;-80
2022/07/17 04:42:48;;;;;;;0.43;0.43;;;;;;;;;;5075101;28;20197;-80
2022/07/17 04:45:16;;;;;;;4.17;1.10;;;;;;;;;;5092898;28;20212;-80
2022/07/17 04:47:46;;;;;;;1.20;1.10;;;;;;;;;;5093342;28;20200;-80
2022/07/17 04:50:14;;;;;;;1.90;1.70;;;;;;;;;;5075152;28;20209;-80
2022/07/17 04:52:43;;;;;;;4.37;2.80;;;;;;;;;;5075302;28;20238;-80
2022/07/17 04:55:11;;;;;;;1.30;1.30;;;;;;;;;;5092676;28;20213;-80
2022/07/17 04:57:40;;;;;;;0.50;0.50;;;;;;;;;;5074913;28;20209;-80
2022/07/17 05:00:09;;;;;;;1.00;1.00;;;;;;;;;;5092721;28;20278;-80
2022/07/17 05:02:38;;;;;;;1.13;1.13;;;;;;;;;;5075111;28;20299;-80
2022/07/17 05:05:09;;;;;;;0.30;0.30;;;;;;;;;;5092164;28;20203;-80
2022/07/17 05:07:37;;;;;;;3.77;2.20;;;;;;;;;;5078462;28;20193;-80
2022/07/17 05:10:06;;;;;;;1.93;1.63;;;;;;;;;;5074650;28;20231;-80
2022/07/17 05:12:34;;;;;;;5.63;1.60;;;;;;;;;;5074917;28;20197;-79
2022/07/17 05:15:03;;;;;;;7.10;3.20;;;;;;;;;;5092663;28;20194;-80
2022/07/17 05:17:31;;;;;;;4.27;2.67;;;;;;;;;;5075281;28;20212;-80
2022/07/17 05:20:00;;;;;;;7.87;3.10;;;;;;;;;;5075041;28;20205;-80
2022/07/17 05:22:29;;;;;;;5.60;3.20;;;;;;;;;;5076010;28;20203;-80
2022/07/17 05:24:58;;;;;;;2.30;2.10;;;;;;;;;;5078313;28;20201;-80
2022/07/17 05:27:27;;;;;;;5.50;2.53;;;;;;;;;;5086713;28;20205;-80
2022/07/17 05:29:55;;;;;;;3.30;2.70;;;;;;;;;;5096035;28;20240;-80
2022/07/17 05:32:23;;;;;;;5.53;2.60;;;;;;;;;;5078494;28;20203;-81
2022/07/17 05:34:52;;;;;;;4.33;3.43;;;;;;;;;;5096031;28;20232;-81
2022/07/17 05:37:20;;;;;;;5.67;2.63;;;;;;;;;;5078040;28;20203;-81
2022/07/17 05:39:50;;;;;;;3.50;2.70;;;;;;;;;;5095677;28;20203;-81
2022/07/17 05:42:18;;;;;;;3.67;2.40;;;;;;;;;;5078211;28;20215;-81
2022/07/17 05:44:47;;;;;;;1.80;1.47;;;;;;;;;;5095874;28;20201;-81
2022/07/17 05:47:15;;;;;;;3.23;1.27;;;;;;;;;;5095733;28;20226;-81
2022/07/17 05:49:43;;;;;;;2.77;1.80;;;;;;;;;;5078253;28;20213;-81
2022/07/17 05:52:12;;;;;;;5.20;2.30;;;;;;;;;;5095939;28;20204;-81
2022/07/17 05:54:40;;;;;;;1.50;1.40;;;;;;;;;;5095564;28;20197;-82
2022/07/17 05:57:10;;;;;;;7.10;2.13;;;;;;;;;;5078095;28;20246;-79
2022/07/17 05:59:38;;;;;;;5.23;2.10;;;;;;;;;;5094529;28;20205;-80
2022/07/17 06:02:07;;;;;;;5.60;2.33;;;;;;;;;;5077541;28;20198;-80
2022/07/17 06:04:35;;;;;;;11.93;2.47;;;;;;;;;;5095692;28;20224;-79
2022/07/17 06:07:04;;;;;;;4.83;2.00;;;;;;;;;;5077380;28;20254;-80
2022/07/17 06:09:33;;;;;;;8.80;2.00;;;;;;;;;;5077764;28;20201;-80
2022/07/17 06:12:01;;;;;;;5.90;2.40;;;;;;;;;;5077398;28;20205;-80
2022/07/17 06:14:31;;;;;;;4.97;2.03;;;;;;;;;;5077344;28;20200;-80
2022/07/17 06:16:59;;;;;;;3.13;1.47;;;;;;;;;;5095674;28;20244;-80
2022/07/17 06:19:27;;;;;;;3.43;1.90;;;;;;;;;;5095355;28;20207;-80
2022/07/17 06:21:56;;;;;;;1.47;1.37;;;;;;;;;;5077598;28;20193;-80
2022/07/17 06:24:24;;;;;;;3.23;2.10;;;;;;;;;;5095233;28;20271;-80
2022/07/17 06:26:52;;;;;;;4.63;1.83;;;;;;;;;;5077168;28;20198;-80
2022/07/17 06:29:21;;;;;;;0.50;0.50;;;;;;;;;;5077146;28;20229;-80
2022/07/17 06:31:50;;;;;;;1.83;0.90;;;;;;;;;;5073571;28;20209;-80
2022/07/17 06:34:19;;;;;;;0.53;0.53;;;;;;;;;;5086036;28;20217;-81
2022/07/17 06:36:47;;;;;;;0.60;0.60;;;;;;;;;;5094965;28;20209;-80
2022/07/17 06:39:16;;;;;;;1.33;1.23;;;;;;;;;;5077309;28;20203;-80
2022/07/17 06:41:44;;;;;;;1.40;1.20;;;;;;;;;;5094904;28;20272;-81
2022/07/17 06:44:13;;;;;;;1.97;1.87;;;;;;;;;;5094814;28;20196;-80
2022/07/17 06:46:41;;;;;;;4.47;1.47;;;;;;;;;;5076703;28;20245;-80
2022/07/17 06:49:11;;;;;;;0.83;0.83;;;;;;;;;;5076778;28;20193;-80
2022/07/17 06:51:39;;;;;;;0.37;0.37;;;;;;;;;;5094509;28;20224;-81
2022/07/17 06:54:09;;;;;;;3.93;1.80;;;;;;;;;;5077201;28;20199;-81
2022/07/17 06:56:38;;;;;;;2.17;0.77;;;;;;;;;;5093741;28;20204;-80
2022/07/17 06:59:07;;;;;;;0.33;0.33;;;;;;;;;;5062955;28;20202;-81
2022/07/17 07:01:36;;;;;;;5.33;1.70;;;;;;;;;;5076971;28;20202;-81
2022/07/17 07:04:08;;;;;;;1.13;1.13;;;;;;;;;;5076329;28;20210;-81
2022/07/17 07:06:38;;;;;;;1.37;1.27;;;;;;;;;;5094349;28;20253;-80
2022/07/17 07:09:07;;;;;;;5.10;2.67;;;;;;;;;;5075531;28;20209;-81
2022/07/17 07:11:42;;;;;;;0.67;0.67;;;;;;;;;;5076675;28;20259;-81
2022/07/17 07:14:10;;;;;;;0.93;0.87;;;;;;;;;;5076044;28;20205;-81
2022/07/17 07:16:38;;;;;;;3.97;1.43;;;;;;;;;;5076021;28;20201;-80
2022/07/17 07:19:07;;;;;;;0.53;0.53;;;;;;;;;;5076487;28;20197;-81
2022/07/17 07:21:35;;;;;;;0.50;0.50;;;;;;;;;;5093956;28;20198;-81
2022/07/17 07:24:05;;;;;;;0.70;0.70;;;;;;;;;;5076049;28;20212;-81
2022/07/17 07:26:34;;;;;;;1.70;1.33;;;;;;;;;;5094087;28;20201;-81
2022/07/17 07:29:02;;;;;;;3.03;1.53;;;;;;;;;;5076134;28;20209;-81
2022/07/17 07:31:31;;;;;;;1.57;1.47;;;;;;;;;;5075909;28;20244;-81
2022/07/17 07:33:59;;;;;;;0.80;0.80;;;;;;;;;;5075846;28;20198;-80
2022/07/17 07:36:28;;;;;;;3.30;1.57;;;;;;;;;;5076096;28;20290;-81
2022/07/17 07:38:58;;;;;;;2.00;1.17;;;;;;;;;;5094002;28;20278;-81
2022/07/17 07:41:28;;;;;;;3.60;1.27;;;;;;;;;;5076072;28;20267;-81
2022/07/17 07:43:57;;;;;;;0.40;0.40;;;;;;;;;;5075788;28;20230;-80
2022/07/17 07:46:25;;;;;;;0.60;0.60;;;;;;;;;;5075026;28;20239;-81
2022/07/17 07:48:54;;;;;;;1.47;1.23;;;;;;;;;;5075933;28;20234;-81
2022/07/17 07:51:22;;;;;;;2.13;1.40;;;;;;;;;;5093637;28;20221;-81
2022/07/17 07:54:10;;;;;;;1.37;1.20;;;;;;;;;;5081543;28;20229;-81
2022/07/17 07:56:40;;;;;;;3.63;1.60;;;;;;;;;;5076032;28;20205;-81
2022/07/17 07:59:08;;;;;;;1.30;0.77;;;;;;;;;;5075915;28;20211;-81
2022/07/17 08:01:37;;;;;;;0.63;0.63;;;;;;;;;;5075997;28;20200;-81
2022/07/17 08:04:06;;;;;;;0.40;0.40;;;;;;;;;;5093360;28;20208;-81
2022/07/17 08:06:34;;;;;;;1.20;1.13;;;;;;;;;;5093767;28;20282;-81
2022/07/17 08:09:03;;;;;;;0.97;0.47;;;;;;;;;;5075339;28;20228;-81
2022/07/17 08:11:31;;;;;;;1.23;0.97;;;;;;;;;;5075685;28;20263;-81
2022/07/17 08:14:01;;;;;;;0.50;0.50;;;;;;;;;;5075786;28;20214;-82
2022/07/17 08:16:40;;;;;;;1.03;1.00;;;;;;;;;;5093511;28;20200;-81
2022/07/17 08:19:09;;;;;;;3.53;1.80;;;;;;;;;;5093756;28;20203;-81
2022/07/17 08:21:37;;;;;;;1.10;0.80;;;;;;;;;;5093268;28;20203;-82
2022/07/17 08:24:06;;;;;;;1.90;0.90;;;;;;;;;;5093296;28;20263;-81
2022/07/17 08:26:34;;;;;;;1.07;1.00;;;;;;;;;;5093243;28;20193;-81
2022/07/17 08:29:04;;;;;;;0.40;0.40;;;;;;;;;;5075803;28;20218;-82
2022/07/17 08:31:33;;;;;;;0.40;0.40;;;;;;;;;;5075428;28;20215;-81
2022/07/17 08:34:01;;;;;;;0.30;0.30;;;;;;;;;;5075333;28;20257;-82
2022/07/17 08:36:30;;;;;;;0.93;0.87;;;;;;;;;;5075617;28;20193;-81
2022/07/17 08:39:00;;;;;;;0.70;0.70;;;;;;;;;;5093385;28;20198;-82
2022/07/17 08:41:29;;;;;;;0.93;0.87;;;;;;;;;;5075510;28;20200;-82
2022/07/17 08:43:58;;;;;;;0.77;0.77;;;;;;;;;;5093125;28;20189;-81
2022/07/17 08:46:29;;;;;;;1.70;1.33;;;;;;;;;;5075153;28;20232;-79
2022/07/17 08:48:59;;;;;;;0.87;0.63;;;;;;;;;;5075235;28;20298;-81
2022/07/17 08:51:28;;;;;;;0.50;0.50;;;;;;;;;;5093103;28;20215;-81
2022/07/17 08:53:57;;;;;;;0.80;0.80;;;;;;;;;;5078112;28;20214;-81
2022/07/17 08:56:26;;;;;;;0.73;0.73;;;;;;;;;;5093997;28;20205;-82
2022/07/17 08:58:55;;;;;;;0.60;0.60;;;;;;;;;;5079104;28;20195;-81
2022/07/17 09:01:24;;;;;;;0.50;0.50;;;;;;;;;;5097132;28;20205;-81
2022/07/17 09:03:59;;;;;;;0.70;0.70;;;;;;;;;;5096973;28;20207;-81
2022/07/17 09:06:28;;;;;;;1.10;1.10;;;;;;;;;;5078861;28;20230;-81
2022/07/17 09:09:04;;;;;;;0.30;0.30;;;;;;;;;;5078636;28;20214;-81
2022/07/17 09:11:43;;;;;;;0.30;0.30;;;;;;;;;;5078651;28;20222;-82
2022/07/17 09:14:11;;;;;;;1.50;1.17;;;;;;;;;;5096611;28;20310;-80
2022/07/17 09:16:49;;;;;;;0.40;0.40;;;;;;;;;;5096769;28;20197;-80
2022/07/17 09:19:29;;;;;;;2.00;1.27;;;;;;;;;;5082388;28;20236;-80
2022/07/17 09:22:11;;;;;;;0.50;0.50;;;;;;;;;;5075315;28;20187;-80
2022/07/17 09:24:41;;;;;;;0.77;0.50;;;;;;;;;;5092516;28;20271;-80
2022/07/17 09:27:10;;;;;;;0.80;0.80;;;;;;;;;;5078663;28;20195;-80
2022/07/17 09:29:51;;;;;;;0.93;0.93;;;;;;;;;;5078655;28;20245;-80
2022/07/17 09:32:20;;;;;;;0.63;0.60;;;;;;;;;;5096284;28;20219;-80
2022/07/17 09:34:50;;;;;;;0.80;0.80;;;;;;;;;;5077987;28;20233;-77
2022/07/17 09:37:19;;;;;;;0.40;0.40;;;;;;;;;;5078479;28;20203;-78
2022/07/17 09:39:49;;;;;;;0.43;0.43;;;;;;;;;;5096232;28;20222;-77
2022/07/17 09:42:27;;;;;;;1.00;1.00;;;;;;;;;;5096584;28;20221;-79
2022/07/17 09:44:59;;;;;;;0.83;0.83;;;;;;;;;;5078435;28;20207;-79
2022/07/17 09:47:28;;;;;;;0.53;0.53;;;;;;;;;;5078239;28;20236;-79
2022/07/17 09:49:59;;;;;;;0.30;0.30;;;;;;;;;;5096026;28;20246;-79
2022/07/17 09:52:29;;;;;;;0.43;0.40;;;;;;;;;;5096343;28;20214;-79
2022/07/17 09:54:58;;;;;;;0.30;0.30;;;;;;;;;;5077808;28;20229;-79
2022/07/17 09:57:49;;;;;;;1.73;0.63;;;;;;;;;;5077871;28;20310;-78
2022/07/17 10:00:18;;;;;;;0.63;0.63;;;;;;;;;;5077849;28;20226;-79
2022/07/17 10:02:51;;;;;;;1.03;0.80;;;;;;;;;;5077764;28;20279;-79
2022/07/17 10:05:21;;;;;;;1.07;0.97;;;;;;;;;;5094406;28;20266;-78
2022/07/17 10:07:50;;;;;;;0.60;0.60;;;;;;;;;;5076799;28;20201;-79
2022/07/17 10:10:19;;;;;;;2.73;1.63;;;;;;;;;;5077741;28;20225;-79
2022/07/17 10:12:49;;;;;;;0.30;0.30;;;;;;;;;;5095536;28;20213;-81
2022/07/17 10:15:17;;;;;;;0.67;0.67;;;;;;;;;;5077408;28;20247;-80
2022/07/17 10:17:46;;;;;;;0.70;0.70;;;;;;;;;;5077388;28;20198;-81
2022/07/17 10:20:24;;;;;;;4.23;1.63;;;;;;;;;;5077394;28;20201;-78
2022/07/17 10:22:54;;;;;;;2.50;1.30;;;;;;;;;;5077236;28;20193;-78
2022/07/17 10:25:23;;;;;;;2.80;1.77;;;;;;;;;;5077291;28;20264;-79
2022/07/17 10:27:53;;;;;;;0.60;0.60;;;;;;;;;;5077110;28;20203;-79
2022/07/17 10:30:24;;;;;;;1.50;0.70;;;;;;;;;;5095189;28;20209;-79
2022/07/17 10:32:53;;;;;;;0.57;0.57;;;;;;;;;;5077443;28;20231;-79
2022/07/17 10:35:22;;;;;;;0.77;0.77;;;;;;;;;;5076994;28;20227;-79
2022/07/17 10:37:51;;;;;;;0.40;0.40;;;;;;;;;;5077203;28;20229;-79
2022/07/17 10:40:24;;;;;;;0.70;0.70;;;;;;;;;;5070788;28;20200;-81
2022/07/17 10:42:54;;;;;;;0.80;0.80;;;;;;;;;;5086513;28;20205;-81
2022/07/17 10:45:24;;;;;;;0.73;0.67;;;;;;;;;;5094365;28;20274;-81
2022/07/17 10:47:57;;;;;;;0.30;0.30;;;;;;;;;;5077037;28;20203;-80
2022/07/17 10:50:27;;;;;;;1.57;1.23;;;;;;;;;;5094756;28;20261;-80
2022/07/17 10:52:59;;;;;;;1.97;0.70;;;;;;;;;;5076798;28;20250;-80
2022/07/17 10:55:29;;;;;;;0.77;0.57;;;;;;;;;;5077122;28;20207;-83
2022/07/17 10:57:58;;;;;;;2.10;1.07;;;;;;;;;;5076850;28;20196;-83
2022/07/17 11:00:27;;;;;;;3.00;0.93;;;;;;;;;;5076673;28;20193;-83
2022/07/17 11:02:55;;;;;;;0.50;0.50;;;;;;;;;;5076765;28;20211;-83
2022/07/17 11:05:23;;;;;;;0.30;0.30;;;;;;;;;;5094742;28;20211;-83
2022/07/17 11:07:53;;;;;;;0.30;0.30;;;;;;;;;;5075971;28;20196;-83
2022/07/17 11:10:22;;;;;;;0.43;0.43;;;;;;;;;;5094435;28;20229;-83
2022/07/17 11:12:51;;;;;;;4.10;2.63;;;;;;;;;;5076137;28;20209;-84
2022/07/17 11:15:20;;;;;;;1.03;0.97;;;;;;;;;;5076564;28;20208;-83
2022/07/17 11:17:50;;;;;;;1.23;1.13;;;;;;;;;;5094220;28;20212;-83
2022/07/17 11:20:19;;;;;;;0.40;0.40;;;;;;;;;;5076518;28;20197;-83
2022/07/17 11:22:47;;;;;;;3.63;2.63;;;;;;;;;;5076288;28;20192;-83
2022/07/17 11:25:16;;;;;;;0.40;0.40;;;;;;;;;;5076340;28;20201;-83
2022/07/17 11:27:44;;;;;;;4.97;0.93;;;;;;;;;;5076244;28;20204;-81
2022/07/17 11:30:17;;;;;;;0.20;0.20;;;;;;;;;;5094239;28;20201;-83
2022/07/17 11:32:45;;;;;;;2.53;1.37;;;;;;;;;;5076463;28;20204;-83
2022/07/17 11:35:18;;;;;;;1.90;1.67;;;;;;;;;;5056356;28;20232;-83
2022/07/17 11:38:07;;;;;;;0.40;0.40;;;;;;;;;;5089713;28;20209;-82
2022/07/17 11:40:35;;;;;;;0.70;0.70;;;;;;;;;;5076161;28;20202;-83
2022/07/17 11:43:05;;;;;;;1.37;1.27;;;;;;;;;;5075873;28;20251;-82
2022/07/17 11:45:35;;;;;;;0.60;0.60;;;;;;;;;;5075631;28;20190;-82
2022/07/17 11:48:04;;;;;;;0.60;0.60;;;;;;;;;;5076126;28;20218;-82
2022/07/17 11:50:34;;;;;;;2.80;0.73;;;;;;;;;;5062410;28;20228;-83
2022/07/17 11:53:03;;;;;;;0.50;0.50;;;;;;;;;;5075982;28;20223;-82
2022/07/17 11:55:37;;;;;;;2.13;1.53;;;;;;;;;;5076323;28;20209;-83
2022/07/17 11:58:06;;;;;;;2.73;1.17;;;;;;;;;;5093701;28;20201;-83
2022/07/17 12:00:36;;;;;;;0.30;0.30;;;;;;;;;;5071211;28;20187;-82
2022/07/17 12:03:05;;;;;;;0.30;0.30;;;;;;;;;;5066987;28;20213;-82
2022/07/17 12:05:35;;;;;;;7.57;1.33;;;;;;;;;;5093553;28;20212;-82
2022/07/17 12:08:04;;;;;;;0.80;0.80;;;;;;;;;;5075993;28;20199;-83
2022/07/17 12:10:33;;;;;;;1.17;1.00;;;;;;;;;;5075525;28;20203;-83
2022/07/17 12:13:04;;;;;;;0.97;0.77;;;;;;;;;;5093996;28;20187;-82
2022/07/17 12:15:37;;;;;;;0.30;0.30;;;;;;;;;;5075733;28;20204;-83
2022/07/17 12:18:09;;;;;;;0.20;0.20;;;;;;;;;;5076007;28;20205;-82
2022/07/17 12:20:45;;;;;;;1.63;1.07;;;;;;;;;;5076000;28;20214;-82
2022/07/17 12:23:28;;;;;;;0.53;0.53;;;;;;;;;;5075706;28;20259;-83
2022/07/17 12:26:05;;;;;;;0.77;0.77;;;;;;;;;;5075805;28;20198;-83
2022/07/17 12:28:33;;;;;;;1.00;0.97;;;;;;;;;;5062351;28;20203;-82
2022/07/17 12:31:03;;;;;;;0.77;0.77;;;;;;;;;;5075886;28;20208;-83
2022/07/17 12:33:32;;;;;;;0.23;0.23;;;;;;;;;;5079624;28;20228;-83
2022/07/17 12:36:01;;;;;;;1.17;1.07;;;;;;;;;;5079207;28;20233;-83
2022/07/17 12:38:29;;;;;;;0.37;0.37;;;;;;;;;;5079536;28;20199;-83
2022/07/17 12:40:58;;;;;;;0.30;0.30;;;;;;;;;;5079939;28;20197;-83
2022/07/17 12:43:26;;;;;;;2.00;0.97;;;;;;;;;;5079611;28;20270;-83
2022/07/17 12:45:55;;;;;;;0.40;0.40;;;;;;;;;;5085853;28;20239;-83
2022/07/17 12:48:34;;;;;;;0.30;0.30;;;;;;;;;;5082136;28;20204;-83
2022/07/17 12:51:04;;;;;;;3.83;2.40;;;;;;;;;;5079259;28;20229;-83
2022/07/17 12:53:32;;;;;;;2.13;1.40;;;;;;;;;;5079183;28;20219;-83
2022/07/17 12:56:01;;;;;;;2.20;0.87;;;;;;;;;;5097218;28;20203;-83
2022/07/17 12:58:30;;;;;;;1.77;1.00;;;;;;;;;;5079017;28;20215;-83
2022/07/17 13:00:59;;;;;;;1.47;1.37;;;;;;;;;;5079234;28;20202;-84
2022/07/17 13:03:27;;;;;;;0.50;0.50;;;;;;;;;;5078920;28;20198;-83
2022/07/17 13:05:57;;;;;;;0.20;0.20;;;;;;;;;;5079446;28;20263;-82
2022/07/17 13:08:26;;;;;;;0.60;0.60;;;;;;;;;;5079382;28;20298;-82
2022/07/17 13:10:54;;;;;;;2.30;1.63;;;;;;;;;;5097033;28;20200;-83
2022/07/17 13:13:23;;;;;;;0.47;0.47;;;;;;;;;;5078798;28;20203;-83
2022/07/17 13:15:51;;;;;;;1.03;1.00;;;;;;;;;;5096647;28;20200;-83
2022/07/17 13:18:21;;;;;;;3.93;1.47;;;;;;;;;;5078757;28;20211;-83
2022/07/17 13:20:49;;;;;;;4.43;2.63;;;;;;;;;;5095497;28;20217;-83
2022/07/17 13:23:19;;;;;;;1.73;1.63;;;;;;;;;;5096699;28;20249;-82
2022/07/17 13:25:48;;;;;;;0.90;0.83;;;;;;;;;;5078905;28;20200;-82
2022/07/17 13:28:16;;;;;;;3.63;2.53;;;;;;;;;;5078782;28;20209;-84
2022/07/17 13:30:45;;;;;;;0.50;0.50;;;;;;;;;;5078217;28;20249;-84
2022/07/17 13:33:13;;;;;;;0.50;0.40;;;;;;;;;;5078867;28;20294;-84
2022/07/17 13:35:43;;;;;;;0.50;0.50;;;;;;;;;;5078506;28;20218;-84
2022/07/17 13:38:11;;;;;;;1.03;1.03;;;;;;;;;;5096515;28;20217;-82
2022/07/17 13:40:41;;;;;;;0.33;0.33;;;;;;;;;;5078496;28;20209;-84
2022/07/17 13:43:09;;;;;;;2.93;0.67;;;;;;;;;;5077355;28;20216;-83
2022/07/17 13:45:38;;;;;;;3.17;1.87;;;;;;;;;;5096030;28;20201;-82
2022/07/17 13:48:06;;;;;;;0.80;0.80;;;;;;;;;;5096515;28;20204;-83
2022/07/17 13:50:35;;;;;;;3.73;0.87;;;;;;;;;;5092530;28;20193;-83
2022/07/17 13:53:03;;;;;;;0.73;0.60;;;;;;;;;;5078136;28;20196;-83
2022/07/17 13:55:32;;;;;;;1.33;1.23;;;;;;;;;;5077946;28;20213;-83
2022/07/17 13:58:13;;;;;;;0.67;0.67;;;;;;;;;;5078339;28;20196;-83
2022/07/17 14:00:42;;;;;;;0.97;0.97;;;;;;;;;;5095907;28;20201;-83
2022/07/17 14:03:10;;;;;;;0.87;0.87;;;;;;;;;;5078446;28;20288;-83
2022/07/17 14:05:39;;;;;;;0.60;0.60;;;;;;;;;;5077854;28;20204;-83
2022/07/17 14:08:07;;;;;;;1.70;1.10;;;;;;;;;;5091629;28;20204;-83
2022/07/17 14:10:36;;;;;;;0.27;0.27;;;;;;;;;;5077975;28;20205;-83
2022/07/17 14:13:04;;;;;;;1.73;1.63;;;;;;;;;;5078069;28;20200;-83
2022/07/17 14:15:34;;;;;;;3.37;1.27;;;;;;;;;;5077926;28;20201;-84
2022/07/17 14:18:02;;;;;;;1.43;1.33;;;;;;;;;;5077937;28;20205;-83
2022/07/17 14:20:31;;;;;;;0.70;0.70;;;;;;;;;;5095453;28;20212;-84
2022/07/17 14:22:59;;;;;;;1.70;1.13;;;;;;;;;;5095641;28;20192;-83
2022/07/17 14:25:28;;;;;;;26.43;1.30;;;;;;;;;;5095476;28;20201;-84
2022/07/17 14:27:56;;;;;;;0.63;0.63;;;;;;;;;;5094421;28;20207;-83
2022/07/17 14:30:25;;;;;;;1.27;0.93;;;;;;;;;;5077576;28;20201;-83
2022/07/17 14:32:55;;;;;;;0.47;0.47;;;;;;;;;;5095344;28;20216;-84
2022/07/17 14:35:23;;;;;;;1.07;0.60;;;;;;;;;;5077709;28;20221;-83
2022/07/17 14:37:51;;;;;;;0.87;0.43;;;;;;;;;;5095006;28;20275;-82
2022/07/17 14:40:20;;;;;;;0.50;0.50;;;;;;;;;;5095458;28;20254;-83
2022/07/17 14:42:48;;;;;;;5.70;2.17;;;;;;;;;;5095054;28;20200;-82
2022/07/17 14:45:17;;;;;;;1.30;1.03;;;;;;;;;;5077560;28;20254;-83
2022/07/17 14:47:45;;;;;;;1.33;1.10;;;;;;;;;;5077017;28;20204;-83
2022/07/17 14:50:15;;;;;;;2.83;1.53;;;;;;;;;;5077084;28;20193;-83
2022/07/17 14:52:44;;;;;;;0.70;0.70;;;;;;;;;;5076917;28;20227;-83
2022/07/17 14:55:13;;;;;;;0.40;0.40;;;;;;;;;;5073394;28;20237;-83
2022/07/17 14:57:41;;;;;;;0.30;0.30;;;;;;;;;;5074544;28;20194;-83